sensor_id;sensor_type;location;lat;lon;timestamp;pressure;altitude;pressure_sealevel;temperature;humidity
73624;BME280;61921;53.226;-1.296;2023-02-28T00:00:37;102396.20;;;6.04;100.00
73624;BME280;61921;53.226;-1.296;2023-02-28T00:03:00;102392.85;;;6.05;100.00
73624;BME280;61921;53.226;-1.296;2023-02-28T00:05:27;102396.77;;;6.10;100.00
73624;BME280;61921;53.226;-1.296;2023-02-28T00:07:52;102397.48;;;6.00;100.00
73624;BME280;61921;53.226;-1.296;2023-02-28T00:10:19;102395.92;;;6.01;100.00
73624;BME280;61921;53.226;-1.296;2023-02-28T00:12:43;102397.32;;;6.00;100.00
73624;BME280;61921;53.226;-1.296;2023-02-28T00:15:10;102395.31;;;5.90;100.00
73624;BME280;61921;53.226;-1.296;2023-02-28T00:17:34;102399.73;;;5.93;100.00
73624;BME280;61921;53.226;-1.296;2023-02-28T00:19:59;102397.99;;;6.11;100.00
73624;BME280;61921;53.226;-1.296;2023-02-28T00:22:24;102402.04;;;6.04;100.00
73624;BME280;61921;53.226;-1.296;2023-02-28T00:24:50;102404.38;;;6.01;100.00
73624;BME280;61921;53.226;-1.296;2023-02-28T00:27:15;102405.94;;;6.00;100.00
73624;BME280;61921;53.226;-1.296;2023-02-28T00:29:41;102405.59;;;5.89;100.00
73624;BME280;61921;53.226;-1.296;2023-02-28T00:32:07;102409.63;;;5.89;100.00
73624;BME280;61921;53.226;-1.296;2023-02-28T00:34:32;102409.91;;;5.87;100.00
73624;BME280;61921;53.226;-1.296;2023-02-28T00:36:58;102411.98;;;5.82;100.00
73624;BME280;61921;53.226;-1.296;2023-02-28T00:39:23;102415.17;;;5.91;100.00
73624;BME280;61921;53.226;-1.296;2023-02-28T00:41:49;102414.41;;;5.89;100.00
73624;BME280;61921;53.226;-1.296;2023-02-28T00:44:14;102413.42;;;5.86;100.00
73624;BME280;61921;53.226;-1.296;2023-02-28T00:46:42;102420.60;;;5.87;100.00
73624;BME280;61921;53.226;-1.296;2023-02-28T00:49:06;102417.30;;;5.86;100.00
73624;BME280;61921;53.226;-1.296;2023-02-28T00:51:31;102418.90;;;5.97;100.00
73624;BME280;61921;53.226;-1.296;2023-02-28T00:53:57;102423.42;;;5.92;100.00
73624;BME280;61921;53.226;-1.296;2023-02-28T00:56:22;102422.44;;;5.92;100.00
73624;BME280;61921;53.226;-1.296;2023-02-28T00:58:47;102417.78;;;5.81;100.00
73624;BME280;61921;53.226;-1.296;2023-02-28T01:01:13;102419.02;;;5.97;100.00
73624;BME280;61921;53.226;-1.296;2023-02-28T01:03:38;102425.93;;;5.99;100.00
73624;BME280;61921;53.226;-1.296;2023-02-28T01:06:04;102425.88;;;6.07;100.00
73624;BME280;61921;53.226;-1.296;2023-02-28T01:08:29;102428.92;;;6.09;100.00
73624;BME280;61921;53.226;-1.296;2023-02-28T01:10:54;102428.49;;;5.92;100.00
73624;BME280;61921;53.226;-1.296;2023-02-28T01:13:20;102429.94;;;5.95;100.00
73624;BME280;61921;53.226;-1.296;2023-02-28T01:15:50;102430.58;;;5.93;100.00
73624;BME280;61921;53.226;-1.296;2023-02-28T01:18:11;102429.16;;;5.93;100.00
73624;BME280;61921;53.226;-1.296;2023-02-28T01:20:37;102428.86;;;5.94;100.00
73624;BME280;61921;53.226;-1.296;2023-02-28T01:23:02;102426.95;;;5.91;100.00
73624;BME280;61921;53.226;-1.296;2023-02-28T01:25:27;102424.52;;;5.90;100.00
73624;BME280;61921;53.226;-1.296;2023-02-28T01:27:52;102428.64;;;5.69;100.00
73624;BME280;61921;53.226;-1.296;2023-02-28T01:30:18;102431.99;;;5.68;100.00
73624;BME280;61921;53.226;-1.296;2023-02-28T01:32:43;102433.63;;;5.68;100.00
73624;BME280;61921;53.226;-1.296;2023-02-28T01:35:09;102432.64;;;5.66;100.00
73624;BME280;61921;53.226;-1.296;2023-02-28T01:37:34;102430.04;;;5.54;100.00
73624;BME280;61921;53.226;-1.296;2023-02-28T01:40:00;102424.34;;;5.51;100.00
73624;BME280;61921;53.226;-1.296;2023-02-28T01:42:26;102419.46;;;5.40;100.00
73624;BME280;61921;53.226;-1.296;2023-02-28T01:45:02;102417.45;;;5.34;100.00
73624;BME280;61921;53.226;-1.296;2023-02-28T01:47:17;102411.86;;;5.28;100.00
73624;BME280;61921;53.226;-1.296;2023-02-28T01:49:42;102410.91;;;5.18;100.00
73624;BME280;61921;53.226;-1.296;2023-02-28T01:52:11;102412.39;;;5.16;100.00
73624;BME280;61921;53.226;-1.296;2023-02-28T01:54:34;102409.19;;;5.08;100.00
73624;BME280;61921;53.226;-1.296;2023-02-28T01:57:01;102407.83;;;5.21;100.00
73624;BME280;61921;53.226;-1.296;2023-02-28T01:59:29;102408.76;;;5.19;100.00
73624;BME280;61921;53.226;-1.296;2023-02-28T02:01:50;102412.36;;;5.26;100.00
73624;BME280;61921;53.226;-1.296;2023-02-28T02:04:15;102411.70;;;5.02;100.00
73624;BME280;61921;53.226;-1.296;2023-02-28T02:06:44;102416.80;;;5.25;100.00
73624;BME280;61921;53.226;-1.296;2023-02-28T02:09:07;102411.56;;;5.07;100.00
73624;BME280;61921;53.226;-1.296;2023-02-28T02:11:33;102409.79;;;5.10;100.00
73624;BME280;61921;53.226;-1.296;2023-02-28T02:16:34;102414.99;;;5.33;100.00
73624;BME280;61921;53.226;-1.296;2023-02-28T02:18:53;102415.88;;;5.25;100.00
73624;BME280;61921;53.226;-1.296;2023-02-28T02:26:18;102415.39;;;4.99;100.00
73624;BME280;61921;53.226;-1.296;2023-02-28T02:28:49;102417.91;;;5.06;100.00
73624;BME280;61921;53.226;-1.296;2023-02-28T02:33:32;102415.91;;;5.00;100.00
73624;BME280;61921;53.226;-1.296;2023-02-28T02:35:53;102417.91;;;5.19;100.00
73624;BME280;61921;53.226;-1.296;2023-02-28T02:38:18;102416.37;;;5.18;100.00
73624;BME280;61921;53.226;-1.296;2023-02-28T02:40:42;102415.37;;;5.20;100.00
73624;BME280;61921;53.226;-1.296;2023-02-28T02:43:08;102416.20;;;5.09;100.00
73624;BME280;61921;53.226;-1.296;2023-02-28T02:45:32;102412.57;;;5.08;100.00
73624;BME280;61921;53.226;-1.296;2023-02-28T02:47:56;102413.43;;;5.16;100.00
73624;BME280;61921;53.226;-1.296;2023-02-28T02:50:24;102411.94;;;5.11;100.00
73624;BME280;61921;53.226;-1.296;2023-02-28T02:52:48;102407.51;;;5.19;100.00
73624;BME280;61921;53.226;-1.296;2023-02-28T02:55:12;102403.32;;;5.19;100.00
73624;BME280;61921;53.226;-1.296;2023-02-28T02:57:39;102403.90;;;5.03;100.00
73624;BME280;61921;53.226;-1.296;2023-02-28T03:00:02;102399.28;;;4.97;100.00
73624;BME280;61921;53.226;-1.296;2023-02-28T03:02:27;102397.50;;;4.98;100.00
73624;BME280;61921;53.226;-1.296;2023-02-28T03:04:53;102399.89;;;5.10;100.00
73624;BME280;61921;53.226;-1.296;2023-02-28T03:07:17;102399.59;;;5.01;100.00
73624;BME280;61921;53.226;-1.296;2023-02-28T03:09:50;102397.75;;;5.10;100.00
73624;BME280;61921;53.226;-1.296;2023-02-28T03:12:12;102396.51;;;5.17;100.00
73624;BME280;61921;53.226;-1.296;2023-02-28T03:14:43;102400.30;;;5.20;100.00
73624;BME280;61921;53.226;-1.296;2023-02-28T03:17:17;102405.73;;;5.17;100.00
73624;BME280;61921;53.226;-1.296;2023-02-28T03:19:34;102405.14;;;5.18;100.00
73624;BME280;61921;53.226;-1.296;2023-02-28T03:21:56;102406.49;;;5.33;100.00
73624;BME280;61921;53.226;-1.296;2023-02-28T03:24:19;102405.96;;;5.23;100.00
73624;BME280;61921;53.226;-1.296;2023-02-28T03:26:43;102403.94;;;5.22;100.00
73624;BME280;61921;53.226;-1.296;2023-02-28T03:29:10;102404.52;;;5.28;100.00
73624;BME280;61921;53.226;-1.296;2023-02-28T03:31:33;102406.33;;;5.27;100.00
73624;BME280;61921;53.226;-1.296;2023-02-28T03:34:00;102406.08;;;5.14;100.00
73624;BME280;61921;53.226;-1.296;2023-02-28T03:36:24;102406.90;;;5.06;100.00
73624;BME280;61921;53.226;-1.296;2023-02-28T03:38:49;102408.43;;;4.99;100.00
73624;BME280;61921;53.226;-1.296;2023-02-28T03:41:14;102406.74;;;5.01;100.00
73624;BME280;61921;53.226;-1.296;2023-02-28T03:43:40;102405.27;;;4.95;100.00
73624;BME280;61921;53.226;-1.296;2023-02-28T03:46:07;102404.70;;;5.02;100.00
73624;BME280;61921;53.226;-1.296;2023-02-28T03:48:33;102406.61;;;4.94;100.00
73624;BME280;61921;53.226;-1.296;2023-02-28T03:50:55;102406.54;;;4.83;100.00
73624;BME280;61921;53.226;-1.296;2023-02-28T03:53:25;102406.51;;;4.80;100.00
73624;BME280;61921;53.226;-1.296;2023-02-28T03:55:49;102407.69;;;4.96;100.00
73624;BME280;61921;53.226;-1.296;2023-02-28T03:58:18;102408.88;;;4.85;100.00
73624;BME280;61921;53.226;-1.296;2023-02-28T04:00:39;102409.35;;;4.86;100.00
73624;BME280;61921;53.226;-1.296;2023-02-28T04:03:02;102410.11;;;4.86;100.00
73624;BME280;61921;53.226;-1.296;2023-02-28T04:05:27;102406.74;;;4.91;100.00
73624;BME280;61921;53.226;-1.296;2023-02-28T04:07:53;102406.31;;;4.93;100.00
73624;BME280;61921;53.226;-1.296;2023-02-28T04:10:18;102407.16;;;5.07;100.00
73624;BME280;61921;53.226;-1.296;2023-02-28T04:12:44;102409.00;;;5.09;100.00
73624;BME280;61921;53.226;-1.296;2023-02-28T04:15:09;102408.74;;;5.01;100.00
73624;BME280;61921;53.226;-1.296;2023-02-28T04:17:34;102411.02;;;5.01;100.00
73624;BME280;61921;53.226;-1.296;2023-02-28T04:20:00;102414.38;;;5.02;100.00
73624;BME280;61921;53.226;-1.296;2023-02-28T04:22:26;102415.17;;;5.05;100.00
73624;BME280;61921;53.226;-1.296;2023-02-28T04:24:51;102414.96;;;4.99;100.00
73624;BME280;61921;53.226;-1.296;2023-02-28T04:27:16;102412.00;;;5.01;100.00
73624;BME280;61921;53.226;-1.296;2023-02-28T04:29:42;102409.68;;;5.06;100.00
73624;BME280;61921;53.226;-1.296;2023-02-28T04:32:08;102413.56;;;5.13;100.00
73624;BME280;61921;53.226;-1.296;2023-02-28T04:34:33;102413.70;;;5.14;100.00
73624;BME280;61921;53.226;-1.296;2023-02-28T04:36:59;102414.01;;;5.13;100.00
73624;BME280;61921;53.226;-1.296;2023-02-28T04:39:25;102414.94;;;5.09;100.00
73624;BME280;61921;53.226;-1.296;2023-02-28T04:41:50;102417.03;;;5.19;100.00
73624;BME280;61921;53.226;-1.296;2023-02-28T04:44:15;102419.36;;;5.25;100.00
73624;BME280;61921;53.226;-1.296;2023-02-28T04:46:42;102419.35;;;5.14;100.00
73624;BME280;61921;53.226;-1.296;2023-02-28T04:49:07;102421.01;;;5.08;100.00
73624;BME280;61921;53.226;-1.296;2023-02-28T04:51:32;102419.24;;;5.09;100.00
73624;BME280;61921;53.226;-1.296;2023-02-28T04:53:58;102419.96;;;5.14;100.00
73624;BME280;61921;53.226;-1.296;2023-02-28T04:56:23;102419.50;;;5.17;100.00
73624;BME280;61921;53.226;-1.296;2023-02-28T04:58:49;102417.20;;;5.19;100.00
73624;BME280;61921;53.226;-1.296;2023-02-28T05:01:19;102419.92;;;5.21;100.00
73624;BME280;61921;53.226;-1.296;2023-02-28T05:03:40;102423.19;;;5.28;100.00
73624;BME280;61921;53.226;-1.296;2023-02-28T05:06:05;102420.78;;;5.30;100.00
73624;BME280;61921;53.226;-1.296;2023-02-28T05:08:30;102420.43;;;5.26;100.00
73624;BME280;61921;53.226;-1.296;2023-02-28T05:10:55;102422.18;;;5.33;100.00
73624;BME280;61921;53.226;-1.296;2023-02-28T05:13:21;102420.80;;;5.37;100.00
73624;BME280;61921;53.226;-1.296;2023-02-28T05:15:46;102417.25;;;5.30;100.00
73624;BME280;61921;53.226;-1.296;2023-02-28T05:18:11;102420.65;;;5.40;100.00
73624;BME280;61921;53.226;-1.296;2023-02-28T05:20:36;102419.03;;;5.45;100.00
73624;BME280;61921;53.226;-1.296;2023-02-28T05:23:02;102421.31;;;5.51;100.00
73624;BME280;61921;53.226;-1.296;2023-02-28T05:25:27;102421.06;;;5.55;100.00
73624;BME280;61921;53.226;-1.296;2023-02-28T05:27:52;102417.35;;;5.60;100.00
73624;BME280;61921;53.226;-1.296;2023-02-28T05:30:18;102421.01;;;5.62;100.00
73624;BME280;61921;53.226;-1.296;2023-02-28T05:32:44;102423.88;;;5.68;100.00
73624;BME280;61921;53.226;-1.296;2023-02-28T05:35:10;102425.53;;;5.65;100.00
73624;BME280;61921;53.226;-1.296;2023-02-28T05:37:35;102426.35;;;5.55;100.00
73624;BME280;61921;53.226;-1.296;2023-02-28T05:40:01;102426.40;;;5.60;100.00
73624;BME280;61921;53.226;-1.296;2023-02-28T05:42:26;102426.16;;;5.66;100.00
73624;BME280;61921;53.226;-1.296;2023-02-28T05:44:51;102422.04;;;5.60;100.00
73624;BME280;61921;53.226;-1.296;2023-02-28T05:47:16;102420.29;;;5.57;100.00
73624;BME280;61921;53.226;-1.296;2023-02-28T05:49:43;102416.43;;;5.60;100.00
73624;BME280;61921;53.226;-1.296;2023-02-28T05:52:07;102417.65;;;5.63;100.00
73624;BME280;61921;53.226;-1.296;2023-02-28T05:54:33;102417.94;;;5.66;100.00
73624;BME280;61921;53.226;-1.296;2023-02-28T05:56:59;102417.26;;;5.53;100.00
73624;BME280;61921;53.226;-1.296;2023-02-28T05:59:24;102414.95;;;5.64;100.00
73624;BME280;61921;53.226;-1.296;2023-02-28T06:01:50;102415.78;;;5.60;100.00
73624;BME280;61921;53.226;-1.296;2023-02-28T06:04:17;102415.34;;;5.53;100.00
73624;BME280;61921;53.226;-1.296;2023-02-28T06:06:41;102415.74;;;5.58;100.00
73624;BME280;61921;53.226;-1.296;2023-02-28T06:09:06;102417.59;;;5.60;100.00
73624;BME280;61921;53.226;-1.296;2023-02-28T06:11:32;102420.21;;;5.61;100.00
73624;BME280;61921;53.226;-1.296;2023-02-28T06:13:58;102418.56;;;5.65;100.00
73624;BME280;61921;53.226;-1.296;2023-02-28T06:16:23;102421.29;;;5.58;100.00
73624;BME280;61921;53.226;-1.296;2023-02-28T06:18:48;102417.78;;;5.59;100.00
73624;BME280;61921;53.226;-1.296;2023-02-28T06:21:13;102420.56;;;5.64;100.00
73624;BME280;61921;53.226;-1.296;2023-02-28T06:23:38;102423.17;;;5.61;100.00
73624;BME280;61921;53.226;-1.296;2023-02-28T06:26:04;102421.61;;;5.67;100.00
73624;BME280;61921;53.226;-1.296;2023-02-28T06:28:30;102416.38;;;5.77;100.00
73624;BME280;61921;53.226;-1.296;2023-02-28T06:30:55;102423.11;;;5.73;100.00
73624;BME280;61921;53.226;-1.296;2023-02-28T06:33:20;102424.49;;;5.67;100.00
73624;BME280;61921;53.226;-1.296;2023-02-28T06:35:46;102426.41;;;5.77;100.00
73624;BME280;61921;53.226;-1.296;2023-02-28T06:38:11;102426.24;;;5.81;100.00
73624;BME280;61921;53.226;-1.296;2023-02-28T06:40:37;102433.16;;;5.71;100.00
73624;BME280;61921;53.226;-1.296;2023-02-28T06:43:03;102437.37;;;5.63;100.00
73624;BME280;61921;53.226;-1.296;2023-02-28T06:45:28;102440.06;;;5.75;100.00
73624;BME280;61921;53.226;-1.296;2023-02-28T06:47:54;102445.46;;;5.80;100.00
73624;BME280;61921;53.226;-1.296;2023-02-28T06:50:19;102441.48;;;5.78;100.00
73624;BME280;61921;53.226;-1.296;2023-02-28T06:52:45;102440.50;;;5.73;100.00
73624;BME280;61921;53.226;-1.296;2023-02-28T06:55:10;102441.65;;;5.78;100.00
73624;BME280;61921;53.226;-1.296;2023-02-28T06:57:37;102441.01;;;5.74;100.00
73624;BME280;61921;53.226;-1.296;2023-02-28T07:00:05;102445.43;;;5.74;100.00
73624;BME280;61921;53.226;-1.296;2023-02-28T07:02:27;102448.43;;;5.77;100.00
73624;BME280;61921;53.226;-1.296;2023-02-28T07:04:53;102447.27;;;5.79;100.00
73624;BME280;61921;53.226;-1.296;2023-02-28T07:07:19;102443.86;;;5.77;100.00
73624;BME280;61921;53.226;-1.296;2023-02-28T07:09:44;102447.04;;;5.73;100.00
73624;BME280;61921;53.226;-1.296;2023-02-28T07:12:10;102451.23;;;5.80;100.00
73624;BME280;61921;53.226;-1.296;2023-02-28T07:14:37;102456.50;;;5.94;100.00
73624;BME280;61921;53.226;-1.296;2023-02-28T07:17:01;102460.24;;;5.88;100.00
73624;BME280;61921;53.226;-1.296;2023-02-28T07:19:26;102462.53;;;5.83;100.00
73624;BME280;61921;53.226;-1.296;2023-02-28T07:21:51;102462.69;;;5.81;100.00
73624;BME280;61921;53.226;-1.296;2023-02-28T07:24:17;102465.27;;;5.84;100.00
73624;BME280;61921;53.226;-1.296;2023-02-28T07:26:42;102466.68;;;5.88;100.00
73624;BME280;61921;53.226;-1.296;2023-02-28T07:29:07;102461.10;;;5.90;100.00
73624;BME280;61921;53.226;-1.296;2023-02-28T07:31:33;102460.82;;;5.87;100.00
73624;BME280;61921;53.226;-1.296;2023-02-28T07:33:58;102458.69;;;5.92;100.00
73624;BME280;61921;53.226;-1.296;2023-02-28T07:36:24;102459.23;;;5.91;100.00
73624;BME280;61921;53.226;-1.296;2023-02-28T07:38:49;102459.77;;;5.96;100.00
73624;BME280;61921;53.226;-1.296;2023-02-28T07:41:15;102465.33;;;5.91;100.00
73624;BME280;61921;53.226;-1.296;2023-02-28T07:43:41;102469.85;;;5.96;100.00
73624;BME280;61921;53.226;-1.296;2023-02-28T07:46:08;102467.29;;;5.96;100.00
73624;BME280;61921;53.226;-1.296;2023-02-28T07:48:32;102464.82;;;5.93;100.00
73624;BME280;61921;53.226;-1.296;2023-02-28T07:50:58;102468.20;;;5.83;100.00
73624;BME280;61921;53.226;-1.296;2023-02-28T07:53:23;102466.51;;;5.85;100.00
73624;BME280;61921;53.226;-1.296;2023-02-28T07:55:48;102467.77;;;5.88;100.00
73624;BME280;61921;53.226;-1.296;2023-02-28T07:58:14;102467.61;;;5.88;100.00
73624;BME280;61921;53.226;-1.296;2023-02-28T08:00:40;102464.81;;;5.83;100.00
73624;BME280;61921;53.226;-1.296;2023-02-28T08:03:05;102462.70;;;5.83;100.00
73624;BME280;61921;53.226;-1.296;2023-02-28T08:05:30;102457.88;;;5.92;100.00
73624;BME280;61921;53.226;-1.296;2023-02-28T08:07:56;102456.80;;;5.83;100.00
73624;BME280;61921;53.226;-1.296;2023-02-28T08:10:22;102457.69;;;5.96;100.00
73624;BME280;61921;53.226;-1.296;2023-02-28T08:12:47;102458.73;;;6.03;100.00
73624;BME280;61921;53.226;-1.296;2023-02-28T08:15:13;102459.38;;;6.03;100.00
73624;BME280;61921;53.226;-1.296;2023-02-28T08:17:39;102457.14;;;5.93;100.00
73624;BME280;61921;53.226;-1.296;2023-02-28T08:20:06;102454.91;;;5.76;100.00
73624;BME280;61921;53.226;-1.296;2023-02-28T08:22:30;102461.61;;;5.79;100.00
73624;BME280;61921;53.226;-1.296;2023-02-28T08:24:55;102466.03;;;5.76;100.00
73624;BME280;61921;53.226;-1.296;2023-02-28T08:27:20;102464.92;;;5.78;100.00
73624;BME280;61921;53.226;-1.296;2023-02-28T08:29:46;102463.34;;;5.80;100.00
73624;BME280;61921;53.226;-1.296;2023-02-28T08:32:12;102463.63;;;5.83;100.00
73624;BME280;61921;53.226;-1.296;2023-02-28T08:34:39;102464.90;;;5.79;100.00
73624;BME280;61921;53.226;-1.296;2023-02-28T08:37:02;102466.83;;;5.78;100.00
73624;BME280;61921;53.226;-1.296;2023-02-28T08:39:28;102466.54;;;5.87;100.00
73624;BME280;61921;53.226;-1.296;2023-02-28T08:41:53;102467.73;;;5.77;100.00
73624;BME280;61921;53.226;-1.296;2023-02-28T08:44:19;102466.05;;;5.89;100.00
73624;BME280;61921;53.226;-1.296;2023-02-28T08:46:44;102468.69;;;5.88;100.00
73624;BME280;61921;53.226;-1.296;2023-02-28T08:49:10;102471.21;;;5.89;100.00
73624;BME280;61921;53.226;-1.296;2023-02-28T08:51:35;102466.49;;;5.80;100.00
73624;BME280;61921;53.226;-1.296;2023-02-28T08:54:01;102471.47;;;5.93;100.00
73624;BME280;61921;53.226;-1.296;2023-02-28T08:56:27;102472.60;;;5.82;100.00
73624;BME280;61921;53.226;-1.296;2023-02-28T08:58:51;102475.82;;;5.87;100.00
73624;BME280;61921;53.226;-1.296;2023-02-28T09:01:18;102479.21;;;5.78;100.00
73624;BME280;61921;53.226;-1.296;2023-02-28T09:03:43;102478.15;;;5.73;100.00
73624;BME280;61921;53.226;-1.296;2023-02-28T09:06:09;102481.30;;;5.77;100.00
73624;BME280;61921;53.226;-1.296;2023-02-28T09:08:33;102480.99;;;5.66;100.00
73624;BME280;61921;53.226;-1.296;2023-02-28T09:10:59;102480.78;;;5.78;100.00
73624;BME280;61921;53.226;-1.296;2023-02-28T09:13:24;102481.38;;;5.81;100.00
73624;BME280;61921;53.226;-1.296;2023-02-28T09:15:50;102485.41;;;5.73;100.00
73624;BME280;61921;53.226;-1.296;2023-02-28T09:18:15;102486.45;;;5.83;100.00
73624;BME280;61921;53.226;-1.296;2023-02-28T09:20:41;102488.36;;;5.78;100.00
73624;BME280;61921;53.226;-1.296;2023-02-28T09:23:06;102492.62;;;5.85;100.00
73624;BME280;61921;53.226;-1.296;2023-02-28T09:25:31;102490.92;;;5.92;100.00
73624;BME280;61921;53.226;-1.296;2023-02-28T09:27:56;102492.83;;;5.94;100.00
73624;BME280;61921;53.226;-1.296;2023-02-28T09:30:21;102490.80;;;5.94;100.00
73624;BME280;61921;53.226;-1.296;2023-02-28T09:32:47;102496.05;;;5.92;100.00
73624;BME280;61921;53.226;-1.296;2023-02-28T09:35:13;102493.79;;;5.94;100.00
73624;BME280;61921;53.226;-1.296;2023-02-28T09:37:38;102493.61;;;5.93;100.00
73624;BME280;61921;53.226;-1.296;2023-02-28T09:40:05;102492.17;;;6.02;100.00
73624;BME280;61921;53.226;-1.296;2023-02-28T09:42:32;102494.17;;;6.10;100.00
73624;BME280;61921;53.226;-1.296;2023-02-28T09:44:56;102490.98;;;6.09;100.00
73624;BME280;61921;53.226;-1.296;2023-02-28T09:47:27;102491.62;;;6.08;100.00
73624;BME280;61921;53.226;-1.296;2023-02-28T09:49:47;102489.42;;;6.17;100.00
73624;BME280;61921;53.226;-1.296;2023-02-28T09:52:15;102493.67;;;6.05;100.00
73624;BME280;61921;53.226;-1.296;2023-02-28T09:54:37;102492.26;;;6.10;100.00
73624;BME280;61921;53.226;-1.296;2023-02-28T09:57:07;102493.13;;;6.13;100.00
73624;BME280;61921;53.226;-1.296;2023-02-28T09:59:37;102494.73;;;6.28;100.00
73624;BME280;61921;53.226;-1.296;2023-02-28T10:01:59;102491.06;;;6.20;100.00
73624;BME280;61921;53.226;-1.296;2023-02-28T10:04:31;102497.29;;;6.31;100.00
73624;BME280;61921;53.226;-1.296;2023-02-28T10:06:46;102493.90;;;6.31;100.00
73624;BME280;61921;53.226;-1.296;2023-02-28T10:09:15;102498.12;;;6.34;100.00
73624;BME280;61921;53.226;-1.296;2023-02-28T10:11:37;102496.42;;;6.44;100.00
73624;BME280;61921;53.226;-1.296;2023-02-28T10:14:04;102501.19;;;6.50;100.00
73624;BME280;61921;53.226;-1.296;2023-02-28T10:16:31;102495.67;;;6.44;100.00
73624;BME280;61921;53.226;-1.296;2023-02-28T10:18:55;102496.73;;;6.61;100.00
73624;BME280;61921;53.226;-1.296;2023-02-28T10:21:21;102504.57;;;6.60;100.00
73624;BME280;61921;53.226;-1.296;2023-02-28T10:23:43;102499.40;;;6.56;100.00
73624;BME280;61921;53.226;-1.296;2023-02-28T10:26:12;102499.58;;;6.62;100.00
73624;BME280;61921;53.226;-1.296;2023-02-28T10:28:33;102499.35;;;6.53;100.00
73624;BME280;61921;53.226;-1.296;2023-02-28T10:30:59;102494.77;;;6.78;100.00
73624;BME280;61921;53.226;-1.296;2023-02-28T10:33:28;102493.56;;;6.69;100.00
73624;BME280;61921;53.226;-1.296;2023-02-28T10:35:51;102495.84;;;6.63;100.00
73624;BME280;61921;53.226;-1.296;2023-02-28T10:38:18;102492.46;;;6.72;100.00
73624;BME280;61921;53.226;-1.296;2023-02-28T10:40:41;102488.67;;;6.73;100.00
73624;BME280;61921;53.226;-1.296;2023-02-28T10:43:18;102486.57;;;6.80;100.00
73624;BME280;61921;53.226;-1.296;2023-02-28T10:45:33;102485.53;;;6.97;100.00
73624;BME280;61921;53.226;-1.296;2023-02-28T10:47:59;102489.40;;;7.06;100.00
73624;BME280;61921;53.226;-1.296;2023-02-28T10:50:28;102488.41;;;7.14;100.00
73624;BME280;61921;53.226;-1.296;2023-02-28T10:52:48;102479.69;;;7.19;100.00
73624;BME280;61921;53.226;-1.296;2023-02-28T10:55:19;102477.88;;;7.18;100.00
73624;BME280;61921;53.226;-1.296;2023-02-28T10:57:39;102475.45;;;7.05;99.25
73624;BME280;61921;53.226;-1.296;2023-02-28T11:00:14;102470.78;;;7.12;99.81
73624;BME280;61921;53.226;-1.296;2023-02-28T11:02:33;102475.48;;;7.61;99.93
73624;BME280;61921;53.226;-1.296;2023-02-28T11:04:56;102474.80;;;7.92;99.11
73624;BME280;61921;53.226;-1.296;2023-02-28T11:07:23;102474.35;;;7.62;97.41
73624;BME280;61921;53.226;-1.296;2023-02-28T11:09:49;102477.64;;;7.99;97.56
73624;BME280;61921;53.226;-1.296;2023-02-28T11:12:19;102477.88;;;8.08;96.04
73624;BME280;61921;53.226;-1.296;2023-02-28T11:14:46;102478.39;;;8.13;95.57
73624;BME280;61921;53.226;-1.296;2023-02-28T11:17:13;102481.16;;;8.12;95.40
73624;BME280;61921;53.226;-1.296;2023-02-28T11:19:34;102481.39;;;8.08;94.63
73624;BME280;61921;53.226;-1.296;2023-02-28T11:21:56;102478.90;;;8.14;94.17
73624;BME280;61921;53.226;-1.296;2023-02-28T11:24:24;102468.10;;;8.42;94.16
73624;BME280;61921;53.226;-1.296;2023-02-28T11:26:47;102468.26;;;8.79;94.04
73624;BME280;61921;53.226;-1.296;2023-02-28T11:29:18;102469.78;;;8.50;91.78
73624;BME280;61921;53.226;-1.296;2023-02-28T11:31:36;102479.90;;;8.32;93.07
73624;BME280;61921;53.226;-1.296;2023-02-28T11:36:30;102478.59;;;8.28;92.97
73624;BME280;61921;53.226;-1.296;2023-02-28T11:38:54;102470.38;;;8.64;91.95
73624;BME280;61921;53.226;-1.296;2023-02-28T11:41:29;102464.57;;;8.72;92.28
73624;BME280;61921;53.226;-1.296;2023-02-28T11:43:55;102472.14;;;8.08;93.36
73624;BME280;61921;53.226;-1.296;2023-02-28T11:46:19;102464.46;;;7.69;94.46
73624;BME280;61921;53.226;-1.296;2023-02-28T11:48:42;102460.49;;;7.70;96.55
73624;BME280;61921;53.226;-1.296;2023-02-28T11:51:11;102462.75;;;7.76;96.57
73624;BME280;61921;53.226;-1.296;2023-02-28T11:53:40;102454.45;;;7.80;97.80
73624;BME280;61921;53.226;-1.296;2023-02-28T11:55:54;102455.44;;;7.55;96.91
73624;BME280;61921;53.226;-1.296;2023-02-28T11:58:27;102456.30;;;7.61;96.93
73624;BME280;61921;53.226;-1.296;2023-02-28T12:00:57;102452.64;;;8.06;96.91
73624;BME280;61921;53.226;-1.296;2023-02-28T12:03:21;102445.75;;;8.15;94.80
73624;BME280;61921;53.226;-1.296;2023-02-28T12:05:36;102437.05;;;8.55;94.35
73624;BME280;61921;53.226;-1.296;2023-02-28T12:08:10;102437.10;;;8.79;92.38
73624;BME280;61921;53.226;-1.296;2023-02-28T12:10:28;102432.51;;;8.86;91.75
73624;BME280;61921;53.226;-1.296;2023-02-28T12:13:01;102424.57;;;8.81;91.30
73624;BME280;61921;53.226;-1.296;2023-02-28T12:15:32;102416.41;;;8.60;90.40
73624;BME280;61921;53.226;-1.296;2023-02-28T12:17:50;102417.42;;;8.52;89.60
73624;BME280;61921;53.226;-1.296;2023-02-28T12:20:14;102419.31;;;8.41;88.53
73624;BME280;61921;53.226;-1.296;2023-02-28T12:22:37;102413.57;;;8.56;88.33
73624;BME280;61921;53.226;-1.296;2023-02-28T12:25:20;102407.58;;;8.97;88.19
73624;BME280;61921;53.226;-1.296;2023-02-28T12:27:26;102404.12;;;8.43;91.19
73624;BME280;61921;53.226;-1.296;2023-02-28T12:29:51;102405.53;;;7.98;91.65
73624;BME280;61921;53.226;-1.296;2023-02-28T12:32:18;102408.73;;;7.95;92.06
73624;BME280;61921;53.226;-1.296;2023-02-28T12:34:44;102407.34;;;7.82;92.53
73624;BME280;61921;53.226;-1.296;2023-02-28T12:37:10;102401.00;;;8.07;93.11
73624;BME280;61921;53.226;-1.296;2023-02-28T12:39:35;102394.46;;;8.41;91.69
73624;BME280;61921;53.226;-1.296;2023-02-28T12:42:00;102386.18;;;8.70;89.82